Aviation Digital Data Service (ADDS)

Output produced by METARs form (1812 UTC 14 August 2018)
found at http://www.aviationweather.gov/adds/metars/
 
KABQ 141725Z 1418/1518 VRB06KT P6SM FEW080 
     FM142200 24006KT P6SM SCT090 
     FM150000 16010KT P6SM VCSH SCT100 
     FM150300 10015G25KT P6SM VCSH SCT070 BKN110 
     FM150900 09010KT P6SM BKN130 
     FM151600 21006KT P6SM FEW080 SCT150
       
KABY 141725Z 1418/1518 18005KT P6SM SCT040 SCT250 
     FM142100 19007KT P6SM VCTS BKN035CB BKN250 
     FM150100 21004KT P6SM BKN250 
     FM151200 14003KT P6SM SCT015 BKN050
       
KACT 141735Z 1418/1518 17011KT P6SM SCT100
       
KACV 141747Z 1418/1518 VRB03KT P6SM OVC006 
     FM142100 30005KT P6SM BKN010 
     FM150200 32003KT 6SM BR OVC006 
     FM150400 34003KT 4SM BR OVC004 
     FM151000 VRB03KT 2SM BR OVC003
       
TAF KADW 141700Z 1417/1523 27012KT 9999 SCT020 BKN200 QNH2989INS 
     BECMG 1421/1422 29012G18KT 9000 -SHRA BKN040 QNH2991INS 
     BECMG 1504/1505 28012KT 9999 NSW FEW050 BKN100 QNH2994INS 
     BECMG 1514/1515 31012KT 9999 FEW050 QNH2999INS TX30/1420Z TN20/1510Z
       
KAEG 141725Z 1418/1518 02006KT P6SM FEW080 
     FM142200 21007KT P6SM SCT090 
     FM150000 15007KT P6SM VCSH SCT100 
     FM150300 12012KT P6SM VCSH SCT070 BKN110 
     FM150900 VRB06KT P6SM BKN130 
     FM151600 03006KT P6SM FEW080 SCT150
       
KAEX 141739Z 1418/1518 VRB04KT P6SM FEW035 SCT045 
     FM150100 VRB03KT P6SM SCT250
       
TAF KAFF 141102Z 1411/1517 36009KT 9999 FEW090 QNH3012INS 
     TEMPO 1413/1417 36012G20KT 
     BECMG 1417/1418 04009KT 9999 FEW090 QNH3016INS 
     BECMG 1420/1421 14010G15KT 9999 VCTS SCT050CB BKN120 QNH3015INS 
     TEMPO 1422/1501 VRB20G35KT 8000 -TSRAGS BKN040CB OVC120 
     TEMPO 1501/1505 VRB20G35KT -SHRA BKN040 
     BECMG 1505/1506 VRB06KT 9999 NSW SCT070 QNH3019INS 
     BECMG 1509/1510 23009KT 9999 SCT070 520105 QNH3018INS 
     BECMG 1516/1517 36012KT 9999 SCT070 QNH3017INS TX29/1422Z TN08/1412Z
       
KAFW 141735Z 1418/1518 17011KT P6SM BKN110 
     FM150600 18011KT P6SM SCT070
       
KAGC 141730Z 1418/1518 22007KT P6SM VCSH BKN025 
     FM150000 24004KT P6SM SCT250 
     FM150800 21004KT 4SM BR SCT250 
     FM151400 24007KT P6SM SCT250
       
KAGS 141730Z 1418/1518 23007KT P6SM FEW060 
     FM150100 VRB03KT P6SM SKC 
     FM150800 00000KT 4SM BR SKC 
     FM151400 VRB04KT P6SM FEW050
       
KAHN 141728Z 1418/1518 28004KT P6SM FEW060 
     FM150100 00000KT P6SM FEW250 
     FM151700 00000KT P6SM SCT040
       
KAIA 141745Z 1418/1518 04012KT P6SM SKC 
     FM142300 12009KT P6SM SCT200 
     FM151400 17008KT P6SM SKC
       
KALB 141733Z 1418/1518 VRB03KT P6SM VCSH SCT025 BKN035 
     TEMPO 1420/1424 2SM TSRA BR BKN010CB OVC025 
     FM150000 VRB03KT P6SM VCSH BKN050 BKN100 
     FM150600 00000KT 4SM BR BKN015 BKN050 
     FM151200 28005KT P6SM BKN025 
     FM151400 30006KT P6SM FEW250
       
KALS 141724Z 1418/1518 16007KT P6SM FEW100 
     FM142100 22012KT P6SM VCTS SCT090CB BKN200 
     FM150200 16008KT P6SM SCT100 BKN200 
     FM150600 VRB06KT P6SM SCT200
       
KALW 141720Z 1418/1518 24004KT 2SM HZ FU SKC 
     FM142200 30005KT 5SM HZ FU SKC 
     FM150300 11005KT 3SM HZ FU SKC 
     FM151700 16005KT 6SM HZ FEW160
       
KAMA 141731Z 1418/1518 20006KT P6SM SCT070 SCT100 
     FM142300 13006KT P6SM FEW080 SCT110 
     FM150300 07007KT P6SM FEW060 SCT100
       
KANB 141722Z 1418/1518 24005KT P6SM FEW050 
     FM150100 00000KT P6SM BKN250
       
KAND 141720Z 1418/1518 26005KT P6SM FEW060 
     FM150300 02003KT P6SM FEW080 
     FM151400 06003KT P6SM FEW060 
     FM151600 26004KT P6SM SCT050
       
KAOO 141742Z 1418/1518 29008KT P6SM -SHRA SCT025 BKN040 
     FM142000 30009KT P6SM VCSH BKN040 
     FM150500 VRB04KT 5SM BR SCT250 
     FM151400 27008KT P6SM SCT250
       
KAPA 141738Z 1418/1518 09005KT P6SM FEW040 FEW200 
     FM142100 10010KT P6SM SCT060 BKN150 
     FM142300 11011KT P6SM BKN070 BKN120 
     TEMPO 1423/1503 VRB15G30KT -TSRA BKN070CB 
     FM150300 15010KT P6SM FEW090 SCT150 
     FM150800 19011KT P6SM FEW120 SCT220 
     FM151700 07006KT P6SM FEW080 SCT150
       
KAPF 141720Z 1418/1518 22010KT P6SM SHRA VCTS SCT020CB BKN050 
     TEMPO 1418/1422 VRB06G25KT TSRA BKN035CB 
     FM142300 07006KT P6SM SCT030 BKN250 
     FM150100 VRB03KT P6SM SCT250 
     FM151400 12008KT P6SM SCT250
       
KAPN 141728Z 1418/1518 29005KT P6SM FEW070 
     FM150200 VRB03KT P6SM SCT060 
     FM150600 VRB03KT P6SM VCSH BKN035 
     FM151100 34003KT P6SM BKN020 
     FM151700 02006KT P6SM BKN050
       
KARA 141739Z 1418/1518 23006KT P6SM SCT030 
     TEMPO 1418/1422 BKN030 
     FM150100 VRB03KT P6SM FEW250
       
KASD 141722Z 1418/1518 VRB04KT P6SM FEW040 SCT060
       
KASE 141805Z 1418/1518 19005KT P6SM SKC 
     FM141900 33006KT P6SM FEW100 SCT250 
     FM150000 30008KT P6SM FEW090 SCT130 
     FM150300 18006KT P6SM FEW090 SCT130
       
KASN 141722Z 1418/1518 28005KT P6SM FEW050 
     FM150100 00000KT P6SM BKN250
       
KAST 141722Z 1418/1518 VRB04KT 5SM FU BKN080 
     FM142000 29010KT 6SM FU BKN080 
     FM150400 22003KT P6SM BKN080 
     FM150900 22005KT 3SM BR OVC006
       
KATW 141740Z 1418/1518 24006KT P6SM SCT050 BKN250 
     FM150600 VRB03KT P6SM SCT100 BKN200 
     TEMPO 1507/1511 3SM BR BKN080 
     FM151300 06005KT P6SM VCSH BKN080
       
KATL 141728Z 1418/1524 29007KT P6SM SCT060 
     FM150100 30004KT P6SM FEW250 
     FM151700 28005KT P6SM SCT040
       
KATY 141728Z 1417/1518 04011KT P6SM SCT035 BKN060 
     FM150200 04006KT P6SM FEW080 SCT090 
     FM151000 VRB04KT P6SM SCT050
       
KAUG 141730Z 1418/1518 14004KT P6SM OVC005 
     FM141900 17006KT P6SM BKN035 
     FM150200 18003KT 3SM BR OVC003 
     FM151300 VRB04KT P6SM SCT040 BKN250
       
KAUS 141730Z 1418/1524 18012G22KT P6SM SCT040 
     FM150100 16010KT P6SM SCT050 SCT250 
     FM150800 17007KT P6SM OVC015 
     FM151500 19012KT P6SM SCT040
       
KAUW 141740Z 1418/1518 25007KT P6SM SCT050 BKN250 
     FM142200 31004KT P6SM VCSH BKN070 BKN200 
     FM150300 VRB03KT P6SM BKN100 
     FM150700 10003KT 5SM BR BKN100 
     TEMPO 1508/1512 2SM BR 
     FM151400 09005KT P6SM BKN070
       
KAVL 141720Z 1418/1518 34005KT P6SM SCT040 
     FM150300 VRB02KT P6SM SCT200 
     FM150700 VRB02KT 2SM BR SCT010 
     FM151300 VRB02KT 6SM BR FEW030 
     FM151500 33004KT P6SM SCT045
       
KAVP 141723Z 1418/1518 25007KT P6SM SCT025 BKN040 
     TEMPO 1418/1422 3SM SHRA BR OVC025 
     FM150000 29005KT P6SM BKN040 
     FM150600 VRB03KT 4SM BR BKN035 
     FM151300 28007KT P6SM BKN045
       
KAXN 141726Z 1418/1518 05005KT P6SM VCTS SCT040CB BKN110 
     TEMPO 1418/1420 VRB10G25KT 2SM +TSRA BKN035CB 
     FM142100 36008KT P6SM SCT080 BKN150 
     FM150200 01005KT P6SM FEW250
       
KAZO 141740Z 1418/1518 26009KT P6SM FEW035 
     FM150200 23005KT P6SM FEW200 
     FM151400 26004KT P6SM BKN250